Time;durP1;ratioP1;P1;durP2;ratioP2;P2;SDS_P1;SDS_P2;PMS_P1;PMS_P2;Temp;Humidity;BMP_temperature;BMP_pressure;BME280_temperature;BME280_humidity;BME280_pressure;Samples;Min_cycle;Max_cycle;Signal;HPM_P1;HPM_P2
2023/03/09 00:01:33;;;;;;;18.27;8.70;;;;;;;;;;4982905;28;20042;-65
2023/03/09 00:04:01;;;;;;;17.30;9.20;;;;;;;;;;4986746;28;20516;-64
2023/03/09 00:06:29;;;;;;;22.35;10.05;;;;;;;;;;4986047;28;20078;-64
2023/03/09 00:08:59;;;;;;;18.35;8.02;;;;;;;;;;4988303;28;20125;-64
2023/03/09 00:11:26;;;;;;;17.58;9.23;;;;;;;;;;4985972;28;20046;-65
2023/03/09 00:13:53;;;;;;;20.20;8.95;;;;;;;;;;4988844;28;20058;-64
2023/03/09 00:16:22;;;;;;;19.33;9.00;;;;;;;;;;4982466;28;20046;-64
2023/03/09 00:18:52;;;;;;;16.55;9.15;;;;;;;;;;4985049;28;20055;-64
2023/03/09 00:21:34;;;;;;;19.67;9.00;;;;;;;;;;4989092;28;20136;-64
2023/03/09 00:24:02;;;;;;;21.98;8.93;;;;;;;;;;4985105;28;20129;-64
2023/03/09 00:26:29;;;;;;;15.93;8.60;;;;;;;;;;4987099;28;20082;-64
2023/03/09 00:28:57;;;;;;;18.60;8.57;;;;;;;;;;4987323;28;20040;-64
2023/03/09 00:31:24;;;;;;;17.77;8.27;;;;;;;;;;4986925;28;20130;-64
2023/03/09 00:33:54;;;;;;;15.05;8.90;;;;;;;;;;4988945;28;20066;-64
2023/03/09 00:36:21;;;;;;;16.65;8.25;;;;;;;;;;4985905;28;20409;-64
2023/03/09 00:38:51;;;;;;;19.30;9.38;;;;;;;;;;4984232;28;20054;-64
2023/03/09 00:41:18;;;;;;;18.48;9.38;;;;;;;;;;4984215;28;20417;-64
2023/03/09 00:43:45;;;;;;;18.90;9.07;;;;;;;;;;4983378;28;20101;-64
2023/03/09 00:46:12;;;;;;;18.65;8.40;;;;;;;;;;4988625;28;20053;-64
2023/03/09 00:48:40;;;;;;;17.70;8.88;;;;;;;;;;4987186;28;20046;-65
2023/03/09 00:51:09;;;;;;;16.10;8.68;;;;;;;;;;4988686;28;20382;-64
2023/03/09 00:53:37;;;;;;;18.52;9.15;;;;;;;;;;4989149;28;20038;-64
2023/03/09 00:56:05;;;;;;;16.20;8.50;;;;;;;;;;4987773;28;20122;-64
2023/03/09 00:58:32;;;;;;;20.88;8.63;;;;;;;;;;4989085;28;20054;-64
2023/03/09 01:00:59;;;;;;;17.58;8.30;;;;;;;;;;4990195;28;20046;-64
2023/03/09 01:03:27;;;;;;;21.23;9.35;;;;;;;;;;4991305;28;20054;-64
2023/03/09 01:05:55;;;;;;;15.27;8.52;;;;;;;;;;4990620;28;20756;-64
2023/03/09 01:08:23;;;;;;;16.10;9.05;;;;;;;;;;4992345;28;20065;-64
2023/03/09 01:10:50;;;;;;;15.98;9.05;;;;;;;;;;4990341;28;20574;-64
2023/03/09 01:13:18;;;;;;;19.65;9.55;;;;;;;;;;4994406;28;20054;-64
2023/03/09 01:15:45;;;;;;;14.07;8.88;;;;;;;;;;4979162;28;20100;-64
2023/03/09 01:18:12;;;;;;;18.10;8.75;;;;;;;;;;4990306;28;20046;-64
2023/03/09 01:20:39;;;;;;;17.63;9.30;;;;;;;;;;4989815;28;20077;-64
2023/03/09 01:23:07;;;;;;;17.52;9.05;;;;;;;;;;4990506;28;20055;-65
2023/03/09 01:25:35;;;;;;;16.40;8.65;;;;;;;;;;4988629;28;20046;-64
2023/03/09 01:28:03;;;;;;;19.73;8.95;;;;;;;;;;4974441;28;20454;-64
2023/03/09 01:30:31;;;;;;;17.67;8.68;;;;;;;;;;4989350;28;20061;-64
2023/03/09 01:32:58;;;;;;;16.90;9.23;;;;;;;;;;4992009;28;20054;-64
2023/03/09 01:35:25;;;;;;;21.45;9.93;;;;;;;;;;4989380;28;20073;-64
2023/03/09 01:37:52;;;;;;;21.52;9.68;;;;;;;;;;4991316;28;20046;-64
2023/03/09 01:40:21;;;;;;;20.48;9.80;;;;;;;;;;4991600;28;20482;-64
2023/03/09 01:42:56;;;;;;;18.33;9.68;;;;;;;;;;4967530;28;20062;-64
2023/03/09 01:45:41;;;;;;;22.65;9.70;;;;;;;;;;4989164;28;20477;-64
2023/03/09 01:48:09;;;;;;;21.38;10.55;;;;;;;;;;4990246;28;20105;-65
2023/03/09 01:50:37;;;;;;;19.98;10.65;;;;;;;;;;4990054;28;20133;-64
2023/03/09 01:53:06;;;;;;;19.65;10.27;;;;;;;;;;4991078;28;20489;-64
2023/03/09 01:55:35;;;;;;;20.88;10.75;;;;;;;;;;4986347;28;20062;-65
2023/03/09 01:58:06;;;;;;;19.00;10.48;;;;;;;;;;4990971;28;20073;-64
2023/03/09 02:00:35;;;;;;;19.55;10.13;;;;;;;;;;4989612;28;20391;-64
2023/03/09 02:03:05;;;;;;;18.45;10.27;;;;;;;;;;4980007;28;20050;-65
2023/03/09 02:05:34;;;;;;;26.77;11.38;;;;;;;;;;4988181;28;20058;-64
2023/03/09 02:08:02;;;;;;;19.08;9.30;;;;;;;;;;4979315;28;20057;-65
2023/03/09 02:10:31;;;;;;;20.30;10.00;;;;;;;;;;4985885;28;20046;-64
2023/03/09 02:13:00;;;;;;;18.27;10.13;;;;;;;;;;4988373;28;20082;-64
2023/03/09 02:15:29;;;;;;;22.48;10.80;;;;;;;;;;4983024;28;20046;-64
2023/03/09 02:17:56;;;;;;;16.92;9.77;;;;;;;;;;4988848;28;20150;-64
2023/03/09 02:20:26;;;;;;;19.02;10.00;;;;;;;;;;4990882;28;20074;-65
2023/03/09 02:22:53;;;;;;;23.13;10.43;;;;;;;;;;4989417;28;20046;-64
2023/03/09 02:25:25;;;;;;;17.15;9.63;;;;;;;;;;4984512;28;20051;-65
2023/03/09 02:27:53;;;;;;;18.73;9.85;;;;;;;;;;4988466;28;20524;-64
2023/03/09 02:30:21;;;;;;;19.50;9.80;;;;;;;;;;4986037;28;20046;-64
2023/03/09 02:32:48;;;;;;;18.70;10.25;;;;;;;;;;4984858;28;20077;-64
2023/03/09 02:35:16;;;;;;;21.42;10.82;;;;;;;;;;4990607;28;20054;-64
2023/03/09 02:37:43;;;;;;;19.40;10.07;;;;;;;;;;4985699;28;20050;-64
2023/03/09 02:40:13;;;;;;;19.42;10.40;;;;;;;;;;4988370;28;20386;-64
2023/03/09 02:42:40;;;;;;;19.65;10.77;;;;;;;;;;4981836;28;20065;-64
2023/03/09 02:45:12;;;;;;;21.58;9.73;;;;;;;;;;4979421;28;20517;-64
2023/03/09 02:47:39;;;;;;;21.08;10.77;;;;;;;;;;4981708;28;20050;-65
2023/03/09 02:50:07;;;;;;;18.67;10.90;;;;;;;;;;4988181;28;20054;-64
2023/03/09 02:52:34;;;;;;;19.10;10.77;;;;;;;;;;4989917;28;20085;-64
2023/03/09 02:55:01;;;;;;;20.67;10.57;;;;;;;;;;4966032;28;20181;-64
2023/03/09 02:57:28;;;;;;;17.98;9.98;;;;;;;;;;4989315;28;20273;-65
2023/03/09 02:59:56;;;;;;;18.98;9.88;;;;;;;;;;4989919;28;20047;-64
2023/03/09 03:02:24;;;;;;;21.92;10.75;;;;;;;;;;4982995;28;20504;-64
2023/03/09 03:04:51;;;;;;;17.85;10.55;;;;;;;;;;4982419;28;20533;-65
2023/03/09 03:07:19;;;;;;;20.65;10.93;;;;;;;;;;4991478;28;20405;-64
2023/03/09 03:09:46;;;;;;;19.27;10.13;;;;;;;;;;4985347;28;20053;-65
2023/03/09 03:12:13;;;;;;;22.20;10.95;;;;;;;;;;4975848;28;20047;-64
2023/03/09 03:14:40;;;;;;;20.73;10.68;;;;;;;;;;4986681;28;20505;-64
2023/03/09 03:17:08;;;;;;;22.50;10.38;;;;;;;;;;4984674;28;20490;-65
2023/03/09 03:19:36;;;;;;;22.10;10.73;;;;;;;;;;4988515;28;20062;-64
2023/03/09 03:22:04;;;;;;;17.88;10.10;;;;;;;;;;4986325;28;20046;-64
2023/03/09 03:24:31;;;;;;;22.98;11.10;;;;;;;;;;4979891;28;20050;-65
2023/03/09 03:26:58;;;;;;;24.33;11.85;;;;;;;;;;4981772;28;20058;-64
2023/03/09 03:29:25;;;;;;;21.58;11.57;;;;;;;;;;4987660;28;20102;-64
2023/03/09 03:31:53;;;;;;;23.73;11.20;;;;;;;;;;4980483;28;20058;-64
2023/03/09 03:34:20;;;;;;;22.80;11.43;;;;;;;;;;4985874;28;20186;-64
2023/03/09 03:36:48;;;;;;;22.63;12.35;;;;;;;;;;4964636;28;20073;-65
2023/03/09 03:39:16;;;;;;;21.25;11.13;;;;;;;;;;4985557;28;20062;-65
2023/03/09 03:41:43;;;;;;;21.52;11.15;;;;;;;;;;4985446;28;20046;-65
2023/03/09 03:44:10;;;;;;;25.38;12.23;;;;;;;;;;4979769;28;20057;-64
2023/03/09 03:46:37;;;;;;;24.23;12.05;;;;;;;;;;4986215;28;20054;-65
2023/03/09 03:49:05;;;;;;;25.95;13.10;;;;;;;;;;4987187;28;20065;-64
2023/03/09 03:51:32;;;;;;;25.33;12.98;;;;;;;;;;4988691;28;20057;-64
2023/03/09 03:54:01;;;;;;;23.95;13.18;;;;;;;;;;4974669;28;20043;-65
2023/03/09 03:56:28;;;;;;;29.30;13.23;;;;;;;;;;4984101;28;20576;-64
2023/03/09 03:58:55;;;;;;;25.30;14.02;;;;;;;;;;4970146;28;20042;-65
2023/03/09 04:01:22;;;;;;;26.27;13.85;;;;;;;;;;4971130;28;20129;-64
2023/03/09 04:03:50;;;;;;;26.58;14.27;;;;;;;;;;4984270;28;20046;-64
2023/03/09 04:06:17;;;;;;;24.38;13.80;;;;;;;;;;4987977;28;20058;-64
2023/03/09 04:08:44;;;;;;;25.92;13.13;;;;;;;;;;4978929;28;20054;-64
2023/03/09 04:11:13;;;;;;;28.73;13.80;;;;;;;;;;4988201;28;20074;-64
2023/03/09 04:13:41;;;;;;;24.80;13.65;;;;;;;;;;4983907;28;20085;-64
2023/03/09 04:16:09;;;;;;;29.90;14.25;;;;;;;;;;4987365;28;20117;-64
2023/03/09 04:18:36;;;;;;;26.92;14.23;;;;;;;;;;4984420;28;20414;-64
2023/03/09 04:21:03;;;;;;;25.92;14.05;;;;;;;;;;4985524;28;20062;-65
2023/03/09 04:23:30;;;;;;;30.90;14.38;;;;;;;;;;4988100;28;20042;-64
2023/03/09 04:25:58;;;;;;;29.13;14.35;;;;;;;;;;4989905;28;20645;-64
2023/03/09 04:28:27;;;;;;;30.30;14.57;;;;;;;;;;4991418;28;20046;-64
2023/03/09 04:30:54;;;;;;;33.45;14.68;;;;;;;;;;4970373;28;20054;-65
2023/03/09 04:33:22;;;;;;;30.05;15.32;;;;;;;;;;4986918;28;20050;-64
2023/03/09 04:35:49;;;;;;;26.42;13.73;;;;;;;;;;4991943;28;20443;-64
2023/03/09 04:38:17;;;;;;;29.85;14.93;;;;;;;;;;4986298;28;20567;-64
2023/03/09 04:40:44;;;;;;;31.30;14.32;;;;;;;;;;4990749;28;20375;-64
2023/03/09 04:43:11;;;;;;;29.17;15.45;;;;;;;;;;4990468;28;20042;-65
2023/03/09 04:45:40;;;;;;;28.65;15.05;;;;;;;;;;4972731;28;20512;-65
2023/03/09 04:48:07;;;;;;;26.27;14.27;;;;;;;;;;4991325;28;20050;-64
2023/03/09 04:50:34;;;;;;;27.17;15.35;;;;;;;;;;4990268;28;20061;-64
2023/03/09 04:53:02;;;;;;;31.85;15.30;;;;;;;;;;4992133;28;20053;-64
2023/03/09 04:55:29;;;;;;;31.08;15.38;;;;;;;;;;4990650;28;20070;-64
2023/03/09 04:57:56;;;;;;;33.38;15.30;;;;;;;;;;4992207;28;20054;-64
2023/03/09 05:00:25;;;;;;;36.03;16.90;;;;;;;;;;4991880;28;20046;-64
2023/03/09 05:02:53;;;;;;;31.35;15.70;;;;;;;;;;4991584;28;20137;-64
2023/03/09 05:05:20;;;;;;;30.67;15.65;;;;;;;;;;4989953;28;20066;-64
2023/03/09 05:07:48;;;;;;;30.80;15.75;;;;;;;;;;4991187;28;20046;-64
2023/03/09 05:10:15;;;;;;;32.55;16.42;;;;;;;;;;4991101;28;20058;-64
2023/03/09 05:12:42;;;;;;;30.75;15.98;;;;;;;;;;4996388;28;20065;-64
2023/03/09 05:15:10;;;;;;;32.47;16.45;;;;;;;;;;4992733;28;20042;-65
2023/03/09 05:17:37;;;;;;;32.92;15.90;;;;;;;;;;4990140;28;20511;-64
2023/03/09 05:20:09;;;;;;;28.88;15.20;;;;;;;;;;4982575;28;20050;-64
2023/03/09 05:22:37;;;;;;;33.45;16.02;;;;;;;;;;4986004;28;20399;-64
2023/03/09 05:25:05;;;;;;;31.35;15.65;;;;;;;;;;4983425;28;20126;-64
2023/03/09 05:27:32;;;;;;;32.80;15.77;;;;;;;;;;4979675;28;20053;-65
2023/03/09 05:29:59;;;;;;;31.20;16.42;;;;;;;;;;4985510;28;20462;-65
2023/03/09 05:32:26;;;;;;;29.30;15.75;;;;;;;;;;4980135;28;20061;-64
2023/03/09 05:34:54;;;;;;;35.22;17.55;;;;;;;;;;4987617;28;20054;-64
2023/03/09 05:37:22;;;;;;;30.40;16.83;;;;;;;;;;4987772;28;20166;-64
2023/03/09 05:39:50;;;;;;;33.25;16.90;;;;;;;;;;4987943;28;20054;-65
2023/03/09 05:42:17;;;;;;;34.95;17.25;;;;;;;;;;4988695;28;20085;-64
2023/03/09 05:44:44;;;;;;;33.05;16.35;;;;;;;;;;4989258;28;20069;-64
2023/03/09 05:47:12;;;;;;;31.92;17.02;;;;;;;;;;4987028;28;20138;-64
2023/03/09 05:49:39;;;;;;;36.45;17.52;;;;;;;;;;4990704;28;20061;-65
2023/03/09 05:52:07;;;;;;;34.35;16.75;;;;;;;;;;4990978;28;20054;-65
2023/03/09 05:54:35;;;;;;;31.27;16.55;;;;;;;;;;4987121;28;20486;-64
2023/03/09 05:57:02;;;;;;;33.33;16.52;;;;;;;;;;4985864;28;20434;-64
2023/03/09 05:59:30;;;;;;;34.20;17.27;;;;;;;;;;4991182;28;20142;-64
2023/03/09 06:01:57;;;;;;;35.95;17.67;;;;;;;;;;4990270;28;20659;-64
2023/03/09 06:04:24;;;;;;;40.92;18.65;;;;;;;;;;4989485;28;20050;-64
2023/03/09 06:06:51;;;;;;;37.15;17.75;;;;;;;;;;4989273;28;20089;-64
2023/03/09 06:09:19;;;;;;;36.42;18.00;;;;;;;;;;4987448;28;20039;-64
2023/03/09 06:11:47;;;;;;;34.90;18.05;;;;;;;;;;4992300;28;20130;-65
2023/03/09 06:14:15;;;;;;;37.65;18.00;;;;;;;;;;4992446;28;20050;-64
2023/03/09 06:16:42;;;;;;;40.17;18.35;;;;;;;;;;4980774;28;20453;-64
2023/03/09 06:19:09;;;;;;;38.53;17.88;;;;;;;;;;4989535;28;20056;-64
2023/03/09 06:21:37;;;;;;;38.15;18.23;;;;;;;;;;4973472;28;20492;-64
2023/03/09 06:24:04;;;;;;;37.50;18.73;;;;;;;;;;4988440;28;20065;-65
2023/03/09 06:26:32;;;;;;;38.78;18.15;;;;;;;;;;4988732;28;20485;-64
2023/03/09 06:29:00;;;;;;;40.10;17.63;;;;;;;;;;4972420;28;20054;-64
2023/03/09 06:31:27;;;;;;;35.70;18.38;;;;;;;;;;4989937;28;20504;-65
2023/03/09 06:33:55;;;;;;;35.08;18.25;;;;;;;;;;4989681;28;20053;-64
2023/03/09 06:36:22;;;;;;;41.28;18.58;;;;;;;;;;4989436;28;20043;-64
2023/03/09 06:38:49;;;;;;;34.05;17.45;;;;;;;;;;4987393;28;20050;-64
2023/03/09 06:41:16;;;;;;;38.95;19.13;;;;;;;;;;4988684;28;20537;-64
2023/03/09 06:43:45;;;;;;;37.22;18.00;;;;;;;;;;4990148;28;20673;-65
2023/03/09 06:46:13;;;;;;;40.00;18.35;;;;;;;;;;4976485;28;20039;-64
2023/03/09 06:48:41;;;;;;;37.58;18.05;;;;;;;;;;4985251;28;20145;-64
2023/03/09 06:51:08;;;;;;;38.67;19.10;;;;;;;;;;4981890;28;20058;-64
2023/03/09 06:53:35;;;;;;;38.53;17.80;;;;;;;;;;4987572;28;20062;-65
2023/03/09 06:56:03;;;;;;;36.78;17.33;;;;;;;;;;4971816;28;20552;-64
2023/03/09 06:58:32;;;;;;;36.88;18.67;;;;;;;;;;4982618;28;20073;-64
2023/03/09 07:01:00;;;;;;;36.83;18.00;;;;;;;;;;4985452;28;20470;-64
2023/03/09 07:03:28;;;;;;;40.63;18.05;;;;;;;;;;4982244;28;20514;-64
2023/03/09 07:05:56;;;;;;;40.95;18.60;;;;;;;;;;4989311;28;20497;-64
2023/03/09 07:08:23;;;;;;;39.15;17.50;;;;;;;;;;4980839;28;20053;-64
2023/03/09 07:10:51;;;;;;;34.05;17.35;;;;;;;;;;4983258;28;20057;-65
2023/03/09 07:13:18;;;;;;;33.42;17.40;;;;;;;;;;4994045;28;20133;-65
2023/03/09 07:15:46;;;;;;;36.67;18.15;;;;;;;;;;4982142;28;20680;-65
2023/03/09 07:18:13;;;;;;;35.90;18.02;;;;;;;;;;4989333;28;20481;-64
2023/03/09 07:20:42;;;;;;;38.05;17.33;;;;;;;;;;4989189;28;20060;-64
2023/03/09 07:23:09;;;;;;;34.67;16.92;;;;;;;;;;4985692;28;20416;-64
2023/03/09 07:25:37;;;;;;;32.47;16.55;;;;;;;;;;4983744;28;20046;-64
2023/03/09 07:28:05;;;;;;;35.70;17.38;;;;;;;;;;4981260;28;20093;-64
2023/03/09 07:30:33;;;;;;;32.28;16.10;;;;;;;;;;4975995;28;20051;-65
2023/03/09 07:33:01;;;;;;;31.63;16.55;;;;;;;;;;4988946;28;20053;-64
2023/03/09 07:35:28;;;;;;;33.40;16.15;;;;;;;;;;4982760;28;20058;-65
2023/03/09 07:37:57;;;;;;;30.85;15.82;;;;;;;;;;4983406;28;20046;-64
2023/03/09 07:40:24;;;;;;;34.60;15.77;;;;;;;;;;4988682;28;20053;-64
2023/03/09 07:42:53;;;;;;;31.90;15.20;;;;;;;;;;4984559;28;20073;-64
2023/03/09 07:45:21;;;;;;;33.10;15.50;;;;;;;;;;4981765;28;20564;-64
2023/03/09 07:47:48;;;;;;;31.05;16.02;;;;;;;;;;4988708;28;20539;-65
2023/03/09 07:50:16;;;;;;;30.02;15.05;;;;;;;;;;4985424;28;20100;-65
2023/03/09 07:52:43;;;;;;;27.63;15.65;;;;;;;;;;4987857;28;20046;-65
2023/03/09 07:55:12;;;;;;;25.95;14.85;;;;;;;;;;4981866;28;20408;-65
2023/03/09 07:57:40;;;;;;;26.70;15.10;;;;;;;;;;4987072;28;20100;-64
2023/03/09 08:00:12;;;;;;;27.08;14.75;;;;;;;;;;4988604;28;20451;-65
2023/03/09 08:02:40;;;;;;;30.25;14.77;;;;;;;;;;4985782;28;20057;-65
2023/03/09 08:05:08;;;;;;;31.65;15.00;;;;;;;;;;4984400;28;20066;-65
2023/03/09 08:07:35;;;;;;;26.60;14.70;;;;;;;;;;4986375;28;20054;-65
2023/03/09 08:10:02;;;;;;;28.05;14.13;;;;;;;;;;4986717;28;20079;-64
2023/03/09 08:12:31;;;;;;;24.95;15.02;;;;;;;;;;4987005;28;20465;-64
2023/03/09 08:14:58;;;;;;;28.27;14.13;;;;;;;;;;4988377;28;20456;-64
2023/03/09 08:17:26;;;;;;;24.83;13.43;;;;;;;;;;4985044;28;20042;-64
2023/03/09 08:19:53;;;;;;;24.88;13.65;;;;;;;;;;4980482;28;20050;-65
2023/03/09 08:22:20;;;;;;;25.00;13.80;;;;;;;;;;4989534;28;20405;-64
2023/03/09 08:24:48;;;;;;;22.70;12.63;;;;;;;;;;4986941;28;20061;-65
2023/03/09 08:27:15;;;;;;;22.05;13.23;;;;;;;;;;4986276;28;20366;-65
2023/03/09 08:29:43;;;;;;;25.40;12.82;;;;;;;;;;4988476;28;20486;-64
2023/03/09 08:32:11;;;;;;;20.33;12.07;;;;;;;;;;4986637;28;20054;-64
2023/03/09 08:34:38;;;;;;;20.60;11.40;;;;;;;;;;4988355;28;20394;-65
2023/03/09 08:37:06;;;;;;;18.33;11.63;;;;;;;;;;4983835;28;20909;-65
2023/03/09 08:39:33;;;;;;;17.58;10.98;;;;;;;;;;4988189;28;20049;-65
2023/03/09 08:42:00;;;;;;;18.58;11.23;;;;;;;;;;4988426;28;20049;-64
2023/03/09 08:44:28;;;;;;;18.58;10.45;;;;;;;;;;4987509;28;20129;-65
2023/03/09 08:46:56;;;;;;;17.60;10.93;;;;;;;;;;4985732;28;20046;-65
2023/03/09 08:49:24;;;;;;;16.92;10.15;;;;;;;;;;4986466;28;20046;-65
2023/03/09 08:51:51;;;;;;;17.30;10.40;;;;;;;;;;4983449;28;20069;-64
2023/03/09 08:54:18;;;;;;;18.35;10.40;;;;;;;;;;4988103;28;20046;-64
2023/03/09 08:56:46;;;;;;;15.63;9.63;;;;;;;;;;4987318;28;20042;-65
2023/03/09 08:59:13;;;;;;;19.90;9.30;;;;;;;;;;4986414;28;20057;-65
2023/03/09 09:01:40;;;;;;;19.48;10.27;;;;;;;;;;4987993;28;20058;-64
2023/03/09 09:04:09;;;;;;;15.68;8.75;;;;;;;;;;4986414;28;20589;-65
2023/03/09 09:06:36;;;;;;;15.23;9.20;;;;;;;;;;4987078;28;20061;-64
2023/03/09 09:09:04;;;;;;;16.40;9.10;;;;;;;;;;4984995;28;20162;-64
2023/03/09 09:11:32;;;;;;;14.75;9.85;;;;;;;;;;4988753;28;20046;-65
2023/03/09 09:13:59;;;;;;;18.38;10.23;;;;;;;;;;4991849;28;20129;-65
2023/03/09 09:16:29;;;;;;;12.93;8.68;;;;;;;;;;4974051;28;20485;-65
2023/03/09 09:18:57;;;;;;;13.60;8.60;;;;;;;;;;4969218;28;20058;-65
2023/03/09 09:21:27;;;;;;;13.38;8.45;;;;;;;;;;4991382;28;20117;-64
2023/03/09 09:23:55;;;;;;;13.70;8.35;;;;;;;;;;4985472;28;20056;-65
2023/03/09 09:26:22;;;;;;;13.02;8.00;;;;;;;;;;4968698;28;20051;-65
2023/03/09 09:28:50;;;;;;;14.95;7.35;;;;;;;;;;4989402;28;20413;-64
2023/03/09 09:31:19;;;;;;;12.23;7.25;;;;;;;;;;4990968;28;20042;-65
2023/03/09 09:33:47;;;;;;;13.35;7.88;;;;;;;;;;4989748;28;20051;-64
2023/03/09 09:36:15;;;;;;;12.35;7.20;;;;;;;;;;4991758;28;20050;-65
2023/03/09 09:38:44;;;;;;;11.20;7.63;;;;;;;;;;4991062;28;20050;-66
2023/03/09 09:41:15;;;;;;;11.23;7.50;;;;;;;;;;4973583;28;20042;-65
2023/03/09 09:43:42;;;;;;;12.23;7.70;;;;;;;;;;4989009;28;20061;-65
2023/03/09 09:46:11;;;;;;;10.93;6.97;;;;;;;;;;4988749;28;20050;-64
2023/03/09 09:48:40;;;;;;;12.32;7.53;;;;;;;;;;4984790;28;20413;-65
2023/03/09 09:51:12;;;;;;;10.95;7.32;;;;;;;;;;4991372;28;20077;-65
2023/03/09 09:53:44;;;;;;;12.60;7.25;;;;;;;;;;4988561;28;20469;-65
2023/03/09 09:56:16;;;;;;;13.25;7.82;;;;;;;;;;4982313;28;20047;-65
2023/03/09 09:58:47;;;;;;;10.38;7.28;;;;;;;;;;4990250;28;20505;-65
2023/03/09 10:01:19;;;;;;;12.38;7.35;;;;;;;;;;4984586;28;20058;-65
2023/03/09 10:03:47;;;;;;;12.25;7.13;;;;;;;;;;4988208;28;20061;-64
2023/03/09 10:06:17;;;;;;;10.27;6.97;;;;;;;;;;4984422;28;20064;-64
2023/03/09 10:08:45;;;;;;;11.55;7.60;;;;;;;;;;4990927;28;20056;-65
2023/03/09 10:11:17;;;;;;;12.55;7.50;;;;;;;;;;4987329;28;20049;-65
2023/03/09 10:13:47;;;;;;;11.45;7.57;;;;;;;;;;4981882;28;20548;-64
2023/03/09 10:16:17;;;;;;;10.55;7.35;;;;;;;;;;4961291;28;20047;-64
2023/03/09 10:18:47;;;;;;;10.88;7.15;;;;;;;;;;4982058;28;20494;-65
2023/03/09 10:21:17;;;;;;;11.35;7.70;;;;;;;;;;4989720;28;20076;-65
2023/03/09 10:23:45;;;;;;;9.75;7.30;;;;;;;;;;4990298;28;20140;-65
2023/03/09 10:26:22;;;;;;;13.20;7.25;;;;;;;;;;4985854;28;20050;-65
2023/03/09 10:28:51;;;;;;;10.25;6.97;;;;;;;;;;4986450;28;20673;-65
2023/03/09 10:31:20;;;;;;;8.68;6.45;;;;;;;;;;4970268;28;20408;-65
2023/03/09 10:33:49;;;;;;;11.18;7.20;;;;;;;;;;4988610;28;20053;-64
2023/03/09 10:36:19;;;;;;;10.48;5.80;;;;;;;;;;4969718;28;20056;-64
2023/03/09 10:38:46;;;;;;;7.45;5.40;;;;;;;;;;4990136;28;20057;-65
2023/03/09 10:41:16;;;;;;;8.77;5.97;;;;;;;;;;4989384;28;20379;-65
2023/03/09 10:43:45;;;;;;;8.85;5.70;;;;;;;;;;4989133;28;20054;-65
2023/03/09 10:46:14;;;;;;;9.40;5.57;;;;;;;;;;4990374;28;20120;-65
2023/03/09 10:48:42;;;;;;;7.47;5.50;;;;;;;;;;4981730;28;20458;-65
2023/03/09 10:51:22;;;;;;;9.50;5.78;;;;;;;;;;4990196;28;20054;-65
2023/03/09 10:53:49;;;;;;;10.65;5.80;;;;;;;;;;4976394;28;20051;-64
2023/03/09 10:56:18;;;;;;;8.70;5.28;;;;;;;;;;4983072;28;20054;-65
2023/03/09 10:58:46;;;;;;;7.45;5.07;;;;;;;;;;4988150;28;20421;-64
2023/03/09 11:01:24;;;;;;;8.50;5.47;;;;;;;;;;4989028;28;20061;-65
2023/03/09 11:03:52;;;;;;;9.57;5.10;;;;;;;;;;4971953;28;20062;-65
2023/03/09 11:06:26;;;;;;;8.00;5.75;;;;;;;;;;4988440;28;20062;-64
2023/03/09 11:09:01;;;;;;;13.10;8.48;;;;;;;;;;4990102;28;20066;-64
2023/03/09 11:11:28;;;;;;;12.27;8.85;;;;;;;;;;4986205;28;20050;-65
2023/03/09 11:13:57;;;;;;;11.35;7.63;;;;;;;;;;4988850;28;20046;-64
2023/03/09 11:16:25;;;;;;;9.75;6.28;;;;;;;;;;4987707;28;20042;-65
2023/03/09 11:19:05;;;;;;;8.95;6.22;;;;;;;;;;4988609;28;20053;-65
2023/03/09 11:21:32;;;;;;;15.35;7.43;;;;;;;;;;4971052;28;20522;-64
2023/03/09 11:24:02;;;;;;;10.13;7.05;;;;;;;;;;4989259;28;20687;-65
2023/03/09 11:26:30;;;;;;;11.05;6.50;;;;;;;;;;4988332;28;20046;-64
2023/03/09 11:29:01;;;;;;;14.30;8.15;;;;;;;;;;4987856;28;20054;-65
2023/03/09 11:31:34;;;;;;;9.30;6.22;;;;;;;;;;4988389;28;20046;-64
2023/03/09 11:34:02;;;;;;;10.02;6.53;;;;;;;;;;4985895;28;20516;-65
2023/03/09 11:36:33;;;;;;;9.88;5.50;;;;;;;;;;4982380;28;20054;-65
2023/03/09 11:39:03;;;;;;;8.73;6.03;;;;;;;;;;4986188;28;20082;-65
2023/03/09 11:41:33;;;;;;;8.80;5.75;;;;;;;;;;4983263;28;20579;-65
2023/03/09 11:44:04;;;;;;;8.23;5.80;;;;;;;;;;4984392;28;20060;-64
2023/03/09 11:46:31;;;;;;;7.63;5.63;;;;;;;;;;4967327;28;20055;-65
2023/03/09 11:49:06;;;;;;;10.02;6.22;;;;;;;;;;4970453;28;20050;-65
2023/03/09 11:51:36;;;;;;;9.32;6.25;;;;;;;;;;4988114;28;20065;-64
2023/03/09 11:54:10;;;;;;;9.02;6.53;;;;;;;;;;4984240;28;20049;-64
2023/03/09 11:56:40;;;;;;;11.68;6.53;;;;;;;;;;4986801;28;20053;-65
2023/03/09 11:59:11;;;;;;;7.95;5.35;;;;;;;;;;4986139;28;20109;-65
2023/03/09 12:01:42;;;;;;;9.18;6.43;;;;;;;;;;4971290;28;20062;-65
2023/03/09 12:04:09;;;;;;;11.27;6.10;;;;;;;;;;4988999;28;20050;-65
2023/03/09 12:06:40;;;;;;;7.38;5.55;;;;;;;;;;4987639;28;20058;-65
2023/03/09 12:09:09;;;;;;;8.30;6.15;;;;;;;;;;4988482;28;20046;-65
2023/03/09 12:11:40;;;;;;;10.07;6.50;;;;;;;;;;4983009;28;20050;-64
2023/03/09 12:14:13;;;;;;;11.02;7.15;;;;;;;;;;4970717;28;20154;-65
2023/03/09 12:16:42;;;;;;;9.52;7.18;;;;;;;;;;4971168;28;20060;-65
2023/03/09 12:19:15;;;;;;;11.38;7.20;;;;;;;;;;4982622;28;20401;-64
2023/03/09 12:21:44;;;;;;;9.02;6.22;;;;;;;;;;4988969;28;20508;-66
2023/03/09 12:24:27;;;;;;;8.98;6.32;;;;;;;;;;4986698;28;20386;-65
2023/03/09 12:26:59;;;;;;;10.55;6.45;;;;;;;;;;4988637;28;20500;-65
2023/03/09 12:29:29;;;;;;;8.63;6.22;;;;;;;;;;4981632;28;20046;-65
2023/03/09 12:32:15;;;;;;;8.43;6.13;;;;;;;;;;4983275;28;20053;-64
2023/03/09 12:34:44;;;;;;;10.13;5.43;;;;;;;;;;4983719;28;20047;-64
2023/03/09 12:37:38;;;;;;;8.77;6.38;;;;;;;;;;4982773;28;20053;-65
2023/03/09 12:40:20;;;;;;;8.60;5.88;;;;;;;;;;4953560;28;20077;-65
2023/03/09 12:42:49;;;;;;;8.43;5.45;;;;;;;;;;4982727;28;20050;-65
2023/03/09 12:45:25;;;;;;;9.73;5.50;;;;;;;;;;4988902;28;20050;-64
2023/03/09 12:47:53;;;;;;;11.10;5.70;;;;;;;;;;4986929;28;20053;-64
2023/03/09 12:50:25;;;;;;;7.53;5.45;;;;;;;;;;4990005;28;20058;-65
2023/03/09 12:53:03;;;;;;;8.00;5.80;;;;;;;;;;4992847;28;20058;-65
2023/03/09 12:55:43;;;;;;;7.72;5.60;;;;;;;;;;4992220;28;20054;-65
2023/03/09 12:58:35;;;;;;;6.93;5.10;;;;;;;;;;4988596;28;20043;-65
2023/03/09 13:01:06;;;;;;;7.47;5.60;;;;;;;;;;4984527;28;20498;-64
2023/03/09 13:03:36;;;;;;;9.02;5.40;;;;;;;;;;4992329;28;20104;-65
2023/03/09 13:06:04;;;;;;;7.13;5.00;;;;;;;;;;4988885;28;20498;-65
2023/03/09 13:08:33;;;;;;;8.38;5.70;;;;;;;;;;4988140;28;20054;-65
2023/03/09 13:11:19;;;;;;;7.50;5.32;;;;;;;;;;4989201;28;20057;-65
2023/03/09 13:13:46;;;;;;;9.02;5.25;;;;;;;;;;4990478;28;20054;-65
2023/03/09 13:16:44;;;;;;;8.50;4.65;;;;;;;;;;4988704;28;20050;-65
2023/03/09 13:19:29;;;;;;;7.25;4.68;;;;;;;;;;4920081;29;20047;-65
2023/03/09 13:22:13;;;;;;;8.00;5.22;;;;;;;;;;4981557;28;20488;-65
2023/03/09 13:24:41;;;;;;;7.25;4.55;;;;;;;;;;4990345;28;20054;-65
2023/03/09 13:27:15;;;;;;;7.65;5.13;;;;;;;;;;4988135;28;20473;-65
2023/03/09 13:29:45;;;;;;;6.63;4.65;;;;;;;;;;4986770;28;20049;-65
2023/03/09 13:32:19;;;;;;;7.75;4.93;;;;;;;;;;4986957;28;20564;-65
2023/03/09 13:34:46;;;;;;;5.93;4.18;;;;;;;;;;4986125;28;20439;-65
2023/03/09 13:37:18;;;;;;;5.90;4.30;;;;;;;;;;4981314;28;20050;-65
2023/03/09 13:39:57;;;;;;;6.93;4.50;;;;;;;;;;4984262;28;20050;-64
2023/03/09 13:42:24;;;;;;;6.38;4.22;;;;;;;;;;4984267;28;20054;-65
2023/03/09 13:44:53;;;;;;;6.55;4.25;;;;;;;;;;4984065;28;20489;-65
2023/03/09 13:47:23;;;;;;;6.25;4.38;;;;;;;;;;4990103;28;20038;-65
2023/03/09 13:49:51;;;;;;;8.05;4.05;;;;;;;;;;4985581;28;20156;-64
2023/03/09 13:52:20;;;;;;;6.75;4.30;;;;;;;;;;4984074;28;20054;-65
2023/03/09 13:54:53;;;;;;;4.75;3.55;;;;;;;;;;4973383;28;20516;-65
2023/03/09 13:57:21;;;;;;;6.35;3.88;;;;;;;;;;4984114;28;20253;-65
2023/03/09 13:59:53;;;;;;;7.10;3.80;;;;;;;;;;4986709;28;20543;-65
2023/03/09 14:02:21;;;;;;;7.78;3.80;;;;;;;;;;4991194;28;20054;-65
2023/03/09 14:04:49;;;;;;;5.05;3.50;;;;;;;;;;4989470;28;20054;-65
2023/03/09 14:07:18;;;;;;;7.47;3.72;;;;;;;;;;4978502;28;20512;-65
2023/03/09 14:09:50;;;;;;;8.88;3.88;;;;;;;;;;4982825;28;20051;-64
2023/03/09 14:12:23;;;;;;;6.95;3.80;;;;;;;;;;4981685;28;20145;-64
2023/03/09 14:14:51;;;;;;;6.57;3.97;;;;;;;;;;4967565;28;20050;-64
2023/03/09 14:17:19;;;;;;;5.53;3.72;;;;;;;;;;4991418;28;20059;-66
2023/03/09 14:19:51;;;;;;;6.93;3.50;;;;;;;;;;4990285;28;20046;-66
2023/03/09 14:22:19;;;;;;;5.97;3.42;;;;;;;;;;4973208;28;20401;-65
2023/03/09 14:24:46;;;;;;;6.07;3.83;;;;;;;;;;4994451;28;20122;-65
2023/03/09 14:27:20;;;;;;;6.45;3.88;;;;;;;;;;4991364;28;20046;-65
2023/03/09 14:29:47;;;;;;;5.40;3.67;;;;;;;;;;4986130;28;20422;-65
2023/03/09 14:32:18;;;;;;;8.80;4.18;;;;;;;;;;4978985;28;20125;-65
2023/03/09 14:34:46;;;;;;;8.57;4.32;;;;;;;;;;4988986;28;20409;-65
2023/03/09 14:37:18;;;;;;;8.52;4.57;;;;;;;;;;4982101;28;20046;-65